sensor_id;sensor_type;location;lat;lon;timestamp;P1;durP1;ratioP1;P2;durP2;ratioP2
10509;SDS011;5303;53.266;10.410;2022-10-16T00:00:29;8.70;;;6.90;;
10509;SDS011;5303;53.266;10.410;2022-10-16T00:02:54;8.50;;;6.60;;
10509;SDS011;5303;53.266;10.410;2022-10-16T00:05:20;7.70;;;6.37;;
10509;SDS011;5303;53.266;10.410;2022-10-16T00:07:45;7.67;;;6.70;;
10509;SDS011;5303;53.266;10.410;2022-10-16T00:10:11;7.23;;;6.03;;
10509;SDS011;5303;53.266;10.410;2022-10-16T00:12:36;7.83;;;5.80;;
10509;SDS011;5303;53.266;10.410;2022-10-16T00:15:01;7.50;;;5.77;;
10509;SDS011;5303;53.266;10.410;2022-10-16T00:17:27;6.27;;;5.47;;
10509;SDS011;5303;53.266;10.410;2022-10-16T00:19:52;6.23;;;5.63;;
10509;SDS011;5303;53.266;10.410;2022-10-16T00:22:17;12.30;;;6.00;;
10509;SDS011;5303;53.266;10.410;2022-10-16T00:24:43;5.77;;;5.20;;
10509;SDS011;5303;53.266;10.410;2022-10-16T00:27:08;6.60;;;5.90;;
10509;SDS011;5303;53.266;10.410;2022-10-16T00:29:33;7.50;;;6.10;;
10509;SDS011;5303;53.266;10.410;2022-10-16T00:31:58;6.40;;;5.80;;
10509;SDS011;5303;53.266;10.410;2022-10-16T00:34:24;7.77;;;5.77;;
10509;SDS011;5303;53.266;10.410;2022-10-16T00:36:49;7.83;;;5.70;;
10509;SDS011;5303;53.266;10.410;2022-10-16T00:39:14;7.57;;;5.47;;
10509;SDS011;5303;53.266;10.410;2022-10-16T00:41:39;9.03;;;5.70;;
10509;SDS011;5303;53.266;10.410;2022-10-16T00:44:41;7.10;;;5.00;;
10509;SDS011;5303;53.266;10.410;2022-10-16T00:47:13;8.27;;;5.50;;
10509;SDS011;5303;53.266;10.410;2022-10-16T00:49:43;5.83;;;4.67;;
10509;SDS011;5303;53.266;10.410;2022-10-16T00:52:09;6.07;;;4.53;;
10509;SDS011;5303;53.266;10.410;2022-10-16T00:54:35;5.17;;;4.67;;
10509;SDS011;5303;53.266;10.410;2022-10-16T00:57:01;6.73;;;4.43;;
10509;SDS011;5303;53.266;10.410;2022-10-16T00:59:33;7.90;;;4.90;;
10509;SDS011;5303;53.266;10.410;2022-10-16T01:02:01;5.63;;;4.30;;
10509;SDS011;5303;53.266;10.410;2022-10-16T01:04:30;5.87;;;4.50;;
10509;SDS011;5303;53.266;10.410;2022-10-16T01:10:34;5.70;;;4.30;;
10509;SDS011;5303;53.266;10.410;2022-10-16T01:13:07;6.17;;;4.20;;
10509;SDS011;5303;53.266;10.410;2022-10-16T01:15:44;4.00;;;3.60;;
10509;SDS011;5303;53.266;10.410;2022-10-16T01:21:11;5.77;;;3.30;;
10509;SDS011;5303;53.266;10.410;2022-10-16T01:24:01;3.07;;;2.77;;
10509;SDS011;5303;53.266;10.410;2022-10-16T01:29:43;5.57;;;3.50;;
10509;SDS011;5303;53.266;10.410;2022-10-16T01:32:19;3.40;;;2.80;;
10509;SDS011;5303;53.266;10.410;2022-10-16T01:34:52;3.73;;;2.80;;
10509;SDS011;5303;53.266;10.410;2022-10-16T01:37:35;3.87;;;2.77;;
10509;SDS011;5303;53.266;10.410;2022-10-16T01:40:06;3.67;;;2.50;;
10509;SDS011;5303;53.266;10.410;2022-10-16T01:42:37;4.93;;;2.70;;
10509;SDS011;5303;53.266;10.410;2022-10-16T01:45:07;5.53;;;2.60;;
10509;SDS011;5303;53.266;10.410;2022-10-16T01:47:36;4.27;;;3.10;;
10509;SDS011;5303;53.266;10.410;2022-10-16T01:50:03;3.17;;;2.77;;
10509;SDS011;5303;53.266;10.410;2022-10-16T01:52:30;3.87;;;2.77;;
10509;SDS011;5303;53.266;10.410;2022-10-16T01:54:58;4.90;;;2.67;;
10509;SDS011;5303;53.266;10.410;2022-10-16T01:57:27;4.07;;;2.43;;
10509;SDS011;5303;53.266;10.410;2022-10-16T01:59:55;4.23;;;2.63;;
10509;SDS011;5303;53.266;10.410;2022-10-16T02:02:25;4.27;;;2.53;;
10509;SDS011;5303;53.266;10.410;2022-10-16T02:04:55;6.17;;;2.33;;
10509;SDS011;5303;53.266;10.410;2022-10-16T02:07:24;5.00;;;2.70;;
10509;SDS011;5303;53.266;10.410;2022-10-16T02:09:49;4.50;;;2.37;;
10509;SDS011;5303;53.266;10.410;2022-10-16T02:12:15;3.30;;;2.10;;
10509;SDS011;5303;53.266;10.410;2022-10-16T02:14:54;3.63;;;2.27;;
10509;SDS011;5303;53.266;10.410;2022-10-16T02:17:20;3.53;;;2.03;;
10509;SDS011;5303;53.266;10.410;2022-10-16T02:19:46;4.77;;;2.10;;
10509;SDS011;5303;53.266;10.410;2022-10-16T02:22:15;2.67;;;1.90;;
10509;SDS011;5303;53.266;10.410;2022-10-16T02:24:49;6.70;;;2.07;;
10509;SDS011;5303;53.266;10.410;2022-10-16T02:30:31;4.43;;;2.03;;
10509;SDS011;5303;53.266;10.410;2022-10-16T02:33:07;3.30;;;2.20;;
10509;SDS011;5303;53.266;10.410;2022-10-16T02:35:36;2.43;;;1.90;;
10509;SDS011;5303;53.266;10.410;2022-10-16T02:38:02;3.10;;;2.00;;
10509;SDS011;5303;53.266;10.410;2022-10-16T02:40:29;2.93;;;2.27;;
10509;SDS011;5303;53.266;10.410;2022-10-16T02:42:54;2.23;;;1.77;;
10509;SDS011;5303;53.266;10.410;2022-10-16T02:45:20;2.70;;;1.70;;
10509;SDS011;5303;53.266;10.410;2022-10-16T02:47:46;3.60;;;1.90;;
10509;SDS011;5303;53.266;10.410;2022-10-16T02:50:12;3.80;;;2.13;;
10509;SDS011;5303;53.266;10.410;2022-10-16T02:52:37;2.47;;;1.80;;
10509;SDS011;5303;53.266;10.410;2022-10-16T02:55:02;4.20;;;1.70;;
10509;SDS011;5303;53.266;10.410;2022-10-16T02:57:28;3.60;;;1.90;;
10509;SDS011;5303;53.266;10.410;2022-10-16T02:59:53;4.87;;;2.20;;
10509;SDS011;5303;53.266;10.410;2022-10-16T03:02:18;5.83;;;1.80;;
10509;SDS011;5303;53.266;10.410;2022-10-16T03:04:44;4.80;;;1.90;;
10509;SDS011;5303;53.266;10.410;2022-10-16T03:07:09;4.27;;;2.00;;
10509;SDS011;5303;53.266;10.410;2022-10-16T03:09:34;3.63;;;2.20;;
10509;SDS011;5303;53.266;10.410;2022-10-16T03:12:00;5.90;;;1.80;;
10509;SDS011;5303;53.266;10.410;2022-10-16T03:14:25;3.57;;;1.70;;
10509;SDS011;5303;53.266;10.410;2022-10-16T03:16:50;3.83;;;2.03;;
10509;SDS011;5303;53.266;10.410;2022-10-16T03:19:16;3.77;;;1.90;;
10509;SDS011;5303;53.266;10.410;2022-10-16T03:21:42;2.60;;;1.90;;
10509;SDS011;5303;53.266;10.410;2022-10-16T03:24:07;7.63;;;2.40;;
10509;SDS011;5303;53.266;10.410;2022-10-16T03:26:33;4.37;;;2.20;;
10509;SDS011;5303;53.266;10.410;2022-10-16T03:28:58;4.00;;;1.87;;
10509;SDS011;5303;53.266;10.410;2022-10-16T03:31:23;2.90;;;1.90;;
10509;SDS011;5303;53.266;10.410;2022-10-16T03:33:48;3.03;;;2.07;;
10509;SDS011;5303;53.266;10.410;2022-10-16T03:36:14;4.63;;;2.10;;
10509;SDS011;5303;53.266;10.410;2022-10-16T03:38:39;4.53;;;2.17;;
10509;SDS011;5303;53.266;10.410;2022-10-16T03:41:04;4.50;;;1.90;;
10509;SDS011;5303;53.266;10.410;2022-10-16T03:43:30;3.23;;;1.90;;
10509;SDS011;5303;53.266;10.410;2022-10-16T03:45:55;3.27;;;2.00;;
10509;SDS011;5303;53.266;10.410;2022-10-16T03:48:20;5.00;;;2.33;;
10509;SDS011;5303;53.266;10.410;2022-10-16T03:50:46;2.63;;;1.90;;
10509;SDS011;5303;53.266;10.410;2022-10-16T03:53:13;5.37;;;2.00;;
10509;SDS011;5303;53.266;10.410;2022-10-16T03:55:40;3.37;;;1.80;;
10509;SDS011;5303;53.266;10.410;2022-10-16T03:58:06;3.20;;;2.10;;
10509;SDS011;5303;53.266;10.410;2022-10-16T04:00:31;2.63;;;1.90;;
10509;SDS011;5303;53.266;10.410;2022-10-16T04:02:57;2.83;;;1.97;;
10509;SDS011;5303;53.266;10.410;2022-10-16T04:05:22;4.00;;;2.27;;
10509;SDS011;5303;53.266;10.410;2022-10-16T04:07:47;4.87;;;2.00;;
10509;SDS011;5303;53.266;10.410;2022-10-16T04:10:13;7.23;;;2.27;;
10509;SDS011;5303;53.266;10.410;2022-10-16T04:12:38;4.40;;;2.03;;
10509;SDS011;5303;53.266;10.410;2022-10-16T04:15:03;2.63;;;2.10;;
10509;SDS011;5303;53.266;10.410;2022-10-16T04:17:29;4.27;;;1.90;;
10509;SDS011;5303;53.266;10.410;2022-10-16T04:19:54;4.20;;;2.00;;
10509;SDS011;5303;53.266;10.410;2022-10-16T04:22:19;4.70;;;1.97;;
10509;SDS011;5303;53.266;10.410;2022-10-16T04:24:45;4.23;;;2.33;;
10509;SDS011;5303;53.266;10.410;2022-10-16T04:27:10;4.87;;;2.17;;
10509;SDS011;5303;53.266;10.410;2022-10-16T04:29:35;3.40;;;2.10;;
10509;SDS011;5303;53.266;10.410;2022-10-16T04:32:01;4.97;;;2.47;;
10509;SDS011;5303;53.266;10.410;2022-10-16T04:34:26;4.27;;;2.60;;
10509;SDS011;5303;53.266;10.410;2022-10-16T04:36:51;6.53;;;2.50;;
10509;SDS011;5303;53.266;10.410;2022-10-16T04:39:16;3.50;;;2.40;;
10509;SDS011;5303;53.266;10.410;2022-10-16T04:41:42;5.13;;;2.30;;
10509;SDS011;5303;53.266;10.410;2022-10-16T04:44:07;5.70;;;2.30;;
10509;SDS011;5303;53.266;10.410;2022-10-16T04:46:33;3.73;;;2.27;;
10509;SDS011;5303;53.266;10.410;2022-10-16T04:48:58;6.93;;;2.63;;
10509;SDS011;5303;53.266;10.410;2022-10-16T04:51:23;5.40;;;2.40;;
10509;SDS011;5303;53.266;10.410;2022-10-16T04:53:50;3.60;;;2.30;;
10509;SDS011;5303;53.266;10.410;2022-10-16T04:56:15;4.93;;;2.60;;
10509;SDS011;5303;53.266;10.410;2022-10-16T04:58:41;4.40;;;2.27;;
10509;SDS011;5303;53.266;10.410;2022-10-16T05:01:06;4.33;;;2.13;;
10509;SDS011;5303;53.266;10.410;2022-10-16T05:03:31;2.93;;;2.23;;
10509;SDS011;5303;53.266;10.410;2022-10-16T05:05:57;9.07;;;2.33;;
10509;SDS011;5303;53.266;10.410;2022-10-16T05:08:22;7.60;;;2.80;;
10509;SDS011;5303;53.266;10.410;2022-10-16T05:10:47;4.90;;;2.40;;
10509;SDS011;5303;53.266;10.410;2022-10-16T05:13:13;3.93;;;2.20;;
10509;SDS011;5303;53.266;10.410;2022-10-16T05:15:38;3.10;;;2.33;;
10509;SDS011;5303;53.266;10.410;2022-10-16T05:18:04;3.93;;;2.50;;
10509;SDS011;5303;53.266;10.410;2022-10-16T05:20:29;7.93;;;2.57;;
10509;SDS011;5303;53.266;10.410;2022-10-16T05:22:55;3.30;;;2.43;;
10509;SDS011;5303;53.266;10.410;2022-10-16T05:25:20;5.47;;;2.53;;
10509;SDS011;5303;53.266;10.410;2022-10-16T05:27:48;5.50;;;2.30;;
10509;SDS011;5303;53.266;10.410;2022-10-16T05:30:14;7.87;;;2.70;;
10509;SDS011;5303;53.266;10.410;2022-10-16T05:32:40;4.03;;;2.70;;
10509;SDS011;5303;53.266;10.410;2022-10-16T05:35:05;8.63;;;2.80;;
10509;SDS011;5303;53.266;10.410;2022-10-16T05:37:31;3.37;;;2.33;;
10509;SDS011;5303;53.266;10.410;2022-10-16T05:39:58;4.60;;;2.67;;
10509;SDS011;5303;53.266;10.410;2022-10-16T05:42:23;3.30;;;2.13;;
10509;SDS011;5303;53.266;10.410;2022-10-16T05:44:48;5.67;;;2.60;;
10509;SDS011;5303;53.266;10.410;2022-10-16T05:47:14;3.27;;;2.73;;
10509;SDS011;5303;53.266;10.410;2022-10-16T05:49:39;6.23;;;2.50;;
10509;SDS011;5303;53.266;10.410;2022-10-16T05:52:05;4.17;;;2.50;;
10509;SDS011;5303;53.266;10.410;2022-10-16T05:54:30;5.30;;;2.50;;
10509;SDS011;5303;53.266;10.410;2022-10-16T05:56:55;6.63;;;2.80;;
10509;SDS011;5303;53.266;10.410;2022-10-16T05:59:21;4.60;;;2.73;;
10509;SDS011;5303;53.266;10.410;2022-10-16T06:01:46;3.73;;;2.43;;
10509;SDS011;5303;53.266;10.410;2022-10-16T06:04:11;4.87;;;2.57;;
10509;SDS011;5303;53.266;10.410;2022-10-16T06:06:36;5.20;;;2.50;;
10509;SDS011;5303;53.266;10.410;2022-10-16T06:09:02;3.60;;;2.17;;
10509;SDS011;5303;53.266;10.410;2022-10-16T06:11:29;4.60;;;2.47;;
10509;SDS011;5303;53.266;10.410;2022-10-16T06:13:57;4.87;;;2.50;;
10509;SDS011;5303;53.266;10.410;2022-10-16T06:16:25;4.30;;;2.40;;
10509;SDS011;5303;53.266;10.410;2022-10-16T06:18:51;4.70;;;2.80;;
10509;SDS011;5303;53.266;10.410;2022-10-16T06:21:18;4.17;;;2.70;;
10509;SDS011;5303;53.266;10.410;2022-10-16T06:23:46;3.83;;;2.30;;
10509;SDS011;5303;53.266;10.410;2022-10-16T06:26:13;5.63;;;3.03;;
10509;SDS011;5303;53.266;10.410;2022-10-16T06:28:40;5.77;;;2.80;;
10509;SDS011;5303;53.266;10.410;2022-10-16T06:31:06;4.13;;;2.70;;
10509;SDS011;5303;53.266;10.410;2022-10-16T06:33:32;4.10;;;2.50;;
10509;SDS011;5303;53.266;10.410;2022-10-16T06:36:02;6.20;;;2.60;;
10509;SDS011;5303;53.266;10.410;2022-10-16T06:38:27;6.03;;;2.83;;
10509;SDS011;5303;53.266;10.410;2022-10-16T06:40:53;7.07;;;2.67;;
10509;SDS011;5303;53.266;10.410;2022-10-16T06:43:18;8.40;;;2.77;;
10509;SDS011;5303;53.266;10.410;2022-10-16T06:45:49;4.47;;;2.70;;
10509;SDS011;5303;53.266;10.410;2022-10-16T06:48:16;5.83;;;2.97;;
10509;SDS011;5303;53.266;10.410;2022-10-16T06:50:41;5.63;;;2.73;;
10509;SDS011;5303;53.266;10.410;2022-10-16T06:53:06;4.87;;;2.50;;
10509;SDS011;5303;53.266;10.410;2022-10-16T06:55:31;5.23;;;2.70;;
10509;SDS011;5303;53.266;10.410;2022-10-16T06:57:57;5.20;;;2.93;;
10509;SDS011;5303;53.266;10.410;2022-10-16T07:00:22;6.13;;;2.80;;
10509;SDS011;5303;53.266;10.410;2022-10-16T07:02:47;3.73;;;2.70;;
10509;SDS011;5303;53.266;10.410;2022-10-16T07:05:12;6.30;;;2.83;;
10509;SDS011;5303;53.266;10.410;2022-10-16T07:07:38;4.97;;;2.50;;
10509;SDS011;5303;53.266;10.410;2022-10-16T07:10:03;5.77;;;2.90;;
10509;SDS011;5303;53.266;10.410;2022-10-16T07:12:28;5.33;;;2.50;;
10509;SDS011;5303;53.266;10.410;2022-10-16T07:14:54;4.53;;;2.77;;
10509;SDS011;5303;53.266;10.410;2022-10-16T07:17:20;4.50;;;2.70;;
10509;SDS011;5303;53.266;10.410;2022-10-16T07:19:46;5.10;;;2.83;;
10509;SDS011;5303;53.266;10.410;2022-10-16T07:22:11;5.47;;;2.93;;
10509;SDS011;5303;53.266;10.410;2022-10-16T07:24:36;4.23;;;2.77;;
10509;SDS011;5303;53.266;10.410;2022-10-16T07:27:02;6.47;;;3.10;;
10509;SDS011;5303;53.266;10.410;2022-10-16T07:29:27;4.83;;;2.70;;
10509;SDS011;5303;53.266;10.410;2022-10-16T07:31:52;5.17;;;3.10;;
10509;SDS011;5303;53.266;10.410;2022-10-16T07:34:18;3.60;;;2.60;;
10509;SDS011;5303;53.266;10.410;2022-10-16T07:36:50;5.70;;;3.00;;
10509;SDS011;5303;53.266;10.410;2022-10-16T07:39:15;4.00;;;2.30;;
10509;SDS011;5303;53.266;10.410;2022-10-16T07:41:41;5.50;;;2.67;;
10509;SDS011;5303;53.266;10.410;2022-10-16T07:44:06;4.23;;;2.90;;
10509;SDS011;5303;53.266;10.410;2022-10-16T07:46:32;9.40;;;4.00;;
10509;SDS011;5303;53.266;10.410;2022-10-16T07:48:59;6.30;;;3.40;;
10509;SDS011;5303;53.266;10.410;2022-10-16T07:51:24;3.90;;;2.80;;
10509;SDS011;5303;53.266;10.410;2022-10-16T07:53:51;7.03;;;2.93;;
10509;SDS011;5303;53.266;10.410;2022-10-16T07:56:17;5.30;;;3.10;;
10509;SDS011;5303;53.266;10.410;2022-10-16T07:58:44;4.73;;;2.80;;
10509;SDS011;5303;53.266;10.410;2022-10-16T08:01:13;3.03;;;2.50;;
10509;SDS011;5303;53.266;10.410;2022-10-16T08:03:47;3.90;;;2.77;;
10509;SDS011;5303;53.266;10.410;2022-10-16T08:06:15;2.93;;;2.30;;
10509;SDS011;5303;53.266;10.410;2022-10-16T08:08:41;4.03;;;2.60;;
10509;SDS011;5303;53.266;10.410;2022-10-16T08:11:07;5.33;;;2.90;;
10509;SDS011;5303;53.266;10.410;2022-10-16T08:13:33;4.63;;;2.60;;
10509;SDS011;5303;53.266;10.410;2022-10-16T08:15:59;3.80;;;2.30;;
10509;SDS011;5303;53.266;10.410;2022-10-16T08:18:24;3.50;;;2.60;;
10509;SDS011;5303;53.266;10.410;2022-10-16T08:20:56;4.73;;;2.13;;
10509;SDS011;5303;53.266;10.410;2022-10-16T08:23:23;5.47;;;2.30;;
10509;SDS011;5303;53.266;10.410;2022-10-16T08:25:50;4.90;;;2.33;;
10509;SDS011;5303;53.266;10.410;2022-10-16T08:28:15;3.17;;;2.40;;
10509;SDS011;5303;53.266;10.410;2022-10-16T08:30:41;3.37;;;2.23;;
10509;SDS011;5303;53.266;10.410;2022-10-16T08:33:07;4.10;;;2.37;;
10509;SDS011;5303;53.266;10.410;2022-10-16T08:35:32;4.77;;;2.70;;
10509;SDS011;5303;53.266;10.410;2022-10-16T08:37:58;4.00;;;2.17;;
10509;SDS011;5303;53.266;10.410;2022-10-16T08:40:28;3.57;;;2.23;;
10509;SDS011;5303;53.266;10.410;2022-10-16T08:50:26;5.10;;;3.60;;
10509;SDS011;5303;53.266;10.410;2022-10-16T08:52:53;3.33;;;2.10;;
10509;SDS011;5303;53.266;10.410;2022-10-16T08:58:09;3.77;;;2.23;;
10509;SDS011;5303;53.266;10.410;2022-10-16T09:00:38;3.60;;;1.80;;
10509;SDS011;5303;53.266;10.410;2022-10-16T09:03:06;4.90;;;2.33;;
10509;SDS011;5303;53.266;10.410;2022-10-16T09:11:14;2.90;;;2.10;;
10509;SDS011;5303;53.266;10.410;2022-10-16T09:16:34;3.70;;;2.00;;
10509;SDS011;5303;53.266;10.410;2022-10-16T09:19:12;5.67;;;2.20;;
10509;SDS011;5303;53.266;10.410;2022-10-16T09:21:46;3.87;;;1.97;;
10509;SDS011;5303;53.266;10.410;2022-10-16T09:24:16;3.03;;;1.80;;
10509;SDS011;5303;53.266;10.410;2022-10-16T09:26:43;4.03;;;2.00;;
10509;SDS011;5303;53.266;10.410;2022-10-16T09:29:13;3.73;;;1.80;;
10509;SDS011;5303;53.266;10.410;2022-10-16T09:31:39;4.87;;;2.07;;
10509;SDS011;5303;53.266;10.410;2022-10-16T09:34:06;2.90;;;1.63;;
10509;SDS011;5303;53.266;10.410;2022-10-16T09:36:40;2.60;;;1.60;;
10509;SDS011;5303;53.266;10.410;2022-10-16T09:39:10;3.93;;;2.00;;
10509;SDS011;5303;53.266;10.410;2022-10-16T09:41:39;2.20;;;1.60;;
10509;SDS011;5303;53.266;10.410;2022-10-16T09:44:17;4.40;;;2.00;;
10509;SDS011;5303;53.266;10.410;2022-10-16T09:46:44;3.10;;;1.50;;
10509;SDS011;5303;53.266;10.410;2022-10-16T09:51:43;3.83;;;1.70;;
10509;SDS011;5303;53.266;10.410;2022-10-16T09:56:34;3.53;;;1.57;;
10509;SDS011;5303;53.266;10.410;2022-10-16T09:59:11;2.93;;;1.50;;
10509;SDS011;5303;53.266;10.410;2022-10-16T10:01:39;3.57;;;1.70;;
10509;SDS011;5303;53.266;10.410;2022-10-16T10:04:06;4.00;;;1.60;;
10509;SDS011;5303;53.266;10.410;2022-10-16T10:06:33;2.20;;;1.40;;
10509;SDS011;5303;53.266;10.410;2022-10-16T10:09:13;4.73;;;2.17;;
10509;SDS011;5303;53.266;10.410;2022-10-16T10:19:29;3.23;;;1.50;;
10509;SDS011;5303;53.266;10.410;2022-10-16T10:21:55;4.10;;;1.47;;
10509;SDS011;5303;53.266;10.410;2022-10-16T10:24:20;2.47;;;1.70;;
10509;SDS011;5303;53.266;10.410;2022-10-16T10:26:50;2.53;;;1.40;;
10509;SDS011;5303;53.266;10.410;2022-10-16T10:32:17;2.93;;;1.30;;
10509;SDS011;5303;53.266;10.410;2022-10-16T10:35:15;3.13;;;1.60;;
10509;SDS011;5303;53.266;10.410;2022-10-16T10:45:42;2.73;;;1.30;;
10509;SDS011;5303;53.266;10.410;2022-10-16T10:50:57;4.20;;;1.60;;
10509;SDS011;5303;53.266;10.410;2022-10-16T10:56:50;4.03;;;1.40;;
10509;SDS011;5303;53.266;10.410;2022-10-16T10:59:28;2.20;;;1.43;;
10509;SDS011;5303;53.266;10.410;2022-10-16T11:02:10;3.53;;;1.57;;
10509;SDS011;5303;53.266;10.410;2022-10-16T11:04:49;2.07;;;1.30;;
10509;SDS011;5303;53.266;10.410;2022-10-16T11:07:29;1.80;;;1.23;;
10509;SDS011;5303;53.266;10.410;2022-10-16T11:10:04;2.23;;;1.40;;
10509;SDS011;5303;53.266;10.410;2022-10-16T11:12:42;2.73;;;1.33;;
10509;SDS011;5303;53.266;10.410;2022-10-16T11:15:13;2.10;;;1.13;;
10509;SDS011;5303;53.266;10.410;2022-10-16T11:17:46;4.43;;;1.23;;
10509;SDS011;5303;53.266;10.410;2022-10-16T11:22:56;1.70;;;1.20;;
10509;SDS011;5303;53.266;10.410;2022-10-16T11:25:28;4.20;;;1.20;;
10509;SDS011;5303;53.266;10.410;2022-10-16T11:28:01;4.10;;;1.07;;
10509;SDS011;5303;53.266;10.410;2022-10-16T11:30:44;2.33;;;1.30;;
10509;SDS011;5303;53.266;10.410;2022-10-16T11:39:05;3.97;;;1.40;;
10509;SDS011;5303;53.266;10.410;2022-10-16T11:41:52;2.57;;;1.33;;
10509;SDS011;5303;53.266;10.410;2022-10-16T11:44:32;2.20;;;1.17;;
10509;SDS011;5303;53.266;10.410;2022-10-16T11:55:47;4.27;;;1.90;;
10509;SDS011;5303;53.266;10.410;2022-10-16T12:03:42;1.73;;;1.27;;
10509;SDS011;5303;53.266;10.410;2022-10-16T12:06:23;4.10;;;1.80;;
10509;SDS011;5303;53.266;10.410;2022-10-16T12:09:02;4.33;;;1.60;;
10509;SDS011;5303;53.266;10.410;2022-10-16T12:14:04;6.07;;;2.07;;
10509;SDS011;5303;53.266;10.410;2022-10-16T12:16:29;2.73;;;1.40;;
10509;SDS011;5303;53.266;10.410;2022-10-16T12:19:10;2.20;;;1.50;;
10509;SDS011;5303;53.266;10.410;2022-10-16T12:21:35;3.83;;;1.90;;
10509;SDS011;5303;53.266;10.410;2022-10-16T12:24:01;2.57;;;1.60;;
10509;SDS011;5303;53.266;10.410;2022-10-16T12:26:30;5.20;;;2.17;;
10509;SDS011;5303;53.266;10.410;2022-10-16T12:29:14;2.27;;;1.47;;
10509;SDS011;5303;53.266;10.410;2022-10-16T12:31:53;4.17;;;1.30;;
10509;SDS011;5303;53.266;10.410;2022-10-16T12:34:23;4.23;;;1.67;;
10509;SDS011;5303;53.266;10.410;2022-10-16T12:37:10;3.93;;;1.80;;
10509;SDS011;5303;53.266;10.410;2022-10-16T12:39:40;4.07;;;1.67;;
10509;SDS011;5303;53.266;10.410;2022-10-16T12:42:19;3.43;;;1.50;;
10509;SDS011;5303;53.266;10.410;2022-10-16T12:44:47;4.50;;;1.53;;
10509;SDS011;5303;53.266;10.410;2022-10-16T12:47:22;4.03;;;1.50;;
10509;SDS011;5303;53.266;10.410;2022-10-16T12:49:57;3.70;;;2.10;;
10509;SDS011;5303;53.266;10.410;2022-10-16T12:52:35;3.50;;;1.80;;
10509;SDS011;5303;53.266;10.410;2022-10-16T12:55:02;5.53;;;1.73;;
10509;SDS011;5303;53.266;10.410;2022-10-16T13:00:22;3.13;;;2.20;;
10509;SDS011;5303;53.266;10.410;2022-10-16T13:13:55;4.93;;;3.13;;
10509;SDS011;5303;53.266;10.410;2022-10-16T13:27:56;3.47;;;1.90;;
10509;SDS011;5303;53.266;10.410;2022-10-16T13:30:26;4.00;;;1.97;;
10509;SDS011;5303;53.266;10.410;2022-10-16T13:33:04;3.90;;;2.07;;
10509;SDS011;5303;53.266;10.410;2022-10-16T13:35:46;3.67;;;1.73;;
10509;SDS011;5303;53.266;10.410;2022-10-16T13:38:17;5.57;;;2.50;;
10509;SDS011;5303;53.266;10.410;2022-10-16T13:40:51;3.57;;;2.00;;
10509;SDS011;5303;53.266;10.410;2022-10-16T13:43:22;2.47;;;1.80;;
10509;SDS011;5303;53.266;10.410;2022-10-16T13:45:57;2.87;;;2.20;;
10509;SDS011;5303;53.266;10.410;2022-10-16T13:48:23;5.10;;;1.57;;
10509;SDS011;5303;53.266;10.410;2022-10-16T13:53:50;3.30;;;1.80;;
10509;SDS011;5303;53.266;10.410;2022-10-16T13:56:16;5.10;;;2.00;;
10509;SDS011;5303;53.266;10.410;2022-10-16T13:58:44;4.00;;;1.70;;
10509;SDS011;5303;53.266;10.410;2022-10-16T14:01:16;2.50;;;1.57;;
10509;SDS011;5303;53.266;10.410;2022-10-16T14:03:45;6.67;;;1.90;;
10509;SDS011;5303;53.266;10.410;2022-10-16T14:06:15;6.33;;;1.77;;
10509;SDS011;5303;53.266;10.410;2022-10-16T14:08:44;3.87;;;1.90;;
10509;SDS011;5303;53.266;10.410;2022-10-16T14:11:19;4.70;;;1.90;;
10509;SDS011;5303;53.266;10.410;2022-10-16T14:13:46;4.20;;;1.23;;
10509;SDS011;5303;53.266;10.410;2022-10-16T14:16:16;4.37;;;1.50;;
10509;SDS011;5303;53.266;10.410;2022-10-16T14:18:45;2.23;;;1.47;;
10509;SDS011;5303;53.266;10.410;2022-10-16T14:21:16;6.43;;;1.40;;
10509;SDS011;5303;53.266;10.410;2022-10-16T14:23:42;5.13;;;1.70;;
10509;SDS011;5303;53.266;10.410;2022-10-16T14:28:33;5.10;;;1.40;;
10509;SDS011;5303;53.266;10.410;2022-10-16T14:31:00;4.17;;;1.93;;
10509;SDS011;5303;53.266;10.410;2022-10-16T14:38:38;2.90;;;1.70;;
10509;SDS011;5303;53.266;10.410;2022-10-16T14:41:05;2.83;;;1.37;;
10509;SDS011;5303;53.266;10.410;2022-10-16T14:46:17;3.37;;;1.50;;
10509;SDS011;5303;53.266;10.410;2022-10-16T14:48:51;4.67;;;1.60;;
10509;SDS011;5303;53.266;10.410;2022-10-16T14:51:21;3.97;;;1.50;;
10509;SDS011;5303;53.266;10.410;2022-10-16T14:53:47;4.53;;;1.50;;
10509;SDS011;5303;53.266;10.410;2022-10-16T14:56:19;3.50;;;1.50;;
10509;SDS011;5303;53.266;10.410;2022-10-16T14:58:47;5.90;;;1.60;;
10509;SDS011;5303;53.266;10.410;2022-10-16T15:01:14;3.20;;;1.67;;
10509;SDS011;5303;53.266;10.410;2022-10-16T15:03:40;3.83;;;1.70;;
10509;SDS011;5303;53.266;10.410;2022-10-16T15:06:11;3.73;;;1.30;;
10509;SDS011;5303;53.266;10.410;2022-10-16T15:08:38;2.90;;;1.60;;
10509;SDS011;5303;53.266;10.410;2022-10-16T15:11:04;4.43;;;1.90;;
10509;SDS011;5303;53.266;10.410;2022-10-16T15:13:30;3.23;;;1.67;;
10509;SDS011;5303;53.266;10.410;2022-10-16T15:15:56;3.80;;;1.63;;
10509;SDS011;5303;53.266;10.410;2022-10-16T15:18:21;4.03;;;1.63;;
10509;SDS011;5303;53.266;10.410;2022-10-16T15:24:09;3.10;;;1.47;;
10509;SDS011;5303;53.266;10.410;2022-10-16T15:26:37;4.60;;;1.80;;
10509;SDS011;5303;53.266;10.410;2022-10-16T15:29:03;5.73;;;1.80;;
10509;SDS011;5303;53.266;10.410;2022-10-16T15:31:28;1.87;;;1.27;;
10509;SDS011;5303;53.266;10.410;2022-10-16T15:33:53;5.37;;;1.70;;
10509;SDS011;5303;53.266;10.410;2022-10-16T15:36:27;5.07;;;1.73;;
10509;SDS011;5303;53.266;10.410;2022-10-16T15:38:52;3.33;;;1.50;;
10509;SDS011;5303;53.266;10.410;2022-10-16T15:41:18;4.67;;;1.60;;
10509;SDS011;5303;53.266;10.410;2022-10-16T15:43:44;2.47;;;1.40;;
10509;SDS011;5303;53.266;10.410;2022-10-16T15:46:10;4.33;;;1.87;;
10509;SDS011;5303;53.266;10.410;2022-10-16T15:48:39;5.50;;;1.87;;
10509;SDS011;5303;53.266;10.410;2022-10-16T15:51:05;5.77;;;2.63;;
10509;SDS011;5303;53.266;10.410;2022-10-16T15:53:31;3.33;;;1.80;;
10509;SDS011;5303;53.266;10.410;2022-10-16T15:55:56;2.47;;;1.67;;
10509;SDS011;5303;53.266;10.410;2022-10-16T15:58:22;2.50;;;1.57;;
10509;SDS011;5303;53.266;10.410;2022-10-16T16:00:54;4.50;;;1.73;;
10509;SDS011;5303;53.266;10.410;2022-10-16T16:03:23;4.17;;;1.63;;
10509;SDS011;5303;53.266;10.410;2022-10-16T16:05:49;4.73;;;2.00;;
10509;SDS011;5303;53.266;10.410;2022-10-16T16:08:14;4.27;;;2.13;;
10509;SDS011;5303;53.266;10.410;2022-10-16T16:10:39;3.33;;;1.80;;
10509;SDS011;5303;53.266;10.410;2022-10-16T16:13:05;3.30;;;2.20;;
10509;SDS011;5303;53.266;10.410;2022-10-16T16:15:30;2.97;;;1.93;;
10509;SDS011;5303;53.266;10.410;2022-10-16T16:17:55;3.07;;;1.93;;
10509;SDS011;5303;53.266;10.410;2022-10-16T16:20:21;3.03;;;2.20;;
10509;SDS011;5303;53.266;10.410;2022-10-16T16:22:46;3.10;;;2.13;;
10509;SDS011;5303;53.266;10.410;2022-10-16T16:25:11;6.07;;;2.10;;
10509;SDS011;5303;53.266;10.410;2022-10-16T16:27:37;3.30;;;2.17;;
10509;SDS011;5303;53.266;10.410;2022-10-16T16:30:03;5.73;;;2.50;;
10509;SDS011;5303;53.266;10.410;2022-10-16T16:32:30;3.10;;;2.07;;
10509;SDS011;5303;53.266;10.410;2022-10-16T16:34:55;3.70;;;2.20;;
10509;SDS011;5303;53.266;10.410;2022-10-16T16:37:21;5.17;;;2.33;;
10509;SDS011;5303;53.266;10.410;2022-10-16T16:39:46;4.47;;;2.23;;
10509;SDS011;5303;53.266;10.410;2022-10-16T16:42:11;6.07;;;2.30;;
10509;SDS011;5303;53.266;10.410;2022-10-16T16:44:37;4.93;;;2.23;;
10509;SDS011;5303;53.266;10.410;2022-10-16T16:47:03;6.20;;;2.70;;
10509;SDS011;5303;53.266;10.410;2022-10-16T16:49:29;4.37;;;2.40;;
10509;SDS011;5303;53.266;10.410;2022-10-16T16:51:54;4.67;;;2.40;;
10509;SDS011;5303;53.266;10.410;2022-10-16T16:54:20;3.07;;;2.20;;
10509;SDS011;5303;53.266;10.410;2022-10-16T16:56:45;3.93;;;2.53;;
10509;SDS011;5303;53.266;10.410;2022-10-16T16:59:14;5.17;;;2.57;;
10509;SDS011;5303;53.266;10.410;2022-10-16T17:01:41;3.20;;;2.30;;